Amberg, Wisconsin
Current Conditions -  °F | °C
As of 3:54 PM on Friday 19 Dec 2014 (Local Time) from KIMT Reporting Station
Clear Clear  
Wind Chill: 19°   Ceiling: Unl
Heat Index: 25°   Visibility: 10mi
Dew Point: 18°   Wind: 5mph
Humidity: 75%   Direction: 110°ESE
Pressure: 30.23"   Gusts: NA
Location:  45.5°N, 87.99°W
Report Text: KIMT 192154Z AUTO 11004KT 10SM CLR M04/M08 A3023 RMK AO2 SLP263 T10391078
Loading
Personal Weather Stations






























Interactive Weather Map New forecast layout! Learn more

10-Day Weather Forecast

Advertisements
Track Severe Weather on mobile